createdAt,value
2022-08-05T00:01:35.459Z,100.00
2022-08-05T00:09:13.151Z,100.00
2022-08-05T00:11:49.133Z,100.00
2022-08-05T00:14:20.219Z,100.00
2022-08-05T00:16:52.773Z,100.00
2022-08-05T00:19:23.457Z,100.00
2022-08-05T00:21:53.886Z,100.00
2022-08-05T00:24:24.570Z,100.00
2022-08-05T00:32:12.499Z,100.00
2022-08-05T00:35:03.982Z,100.00
2022-08-05T00:37:50.737Z,100.00
2022-08-05T00:40:27.149Z,100.00
2022-08-05T00:42:57.415Z,100.00
2022-08-05T00:45:38.380Z,100.00
2022-08-05T00:54:28.114Z,100.00
2022-08-05T00:56:57.549Z,100.00
2022-08-05T00:59:24.837Z,100.00
2022-08-05T01:01:52.225Z,100.00
2022-08-05T01:04:20.233Z,100.00
2022-08-05T01:06:54.969Z,100.00
2022-08-05T01:09:22.650Z,100.00
2022-08-05T01:16:53.001Z,100.00
2022-08-05T01:19:57.058Z,100.00
2022-08-05T01:22:31.774Z,100.00
2022-08-05T01:25:39.933Z,100.00
2022-08-05T01:28:24.174Z,100.00
2022-08-05T01:30:55.276Z,100.00
2022-08-05T01:37:00.624Z,100.00
2022-08-05T01:39:45.637Z,100.00
2022-08-05T01:42:19.364Z,100.00
2022-08-05T01:44:54.177Z,100.00
2022-08-05T01:47:24.377Z,100.00
2022-08-05T01:50:15.149Z,100.00
2022-08-05T01:52:49.962Z,100.00
2022-08-05T02:00:29.977Z,100.00
2022-08-05T02:03:03.553Z,100.00
2022-08-05T02:05:35.854Z,100.00
2022-08-05T02:08:05.096Z,100.00
2022-08-05T02:10:38.313Z,100.00
2022-08-05T02:13:16.125Z,100.00
2022-08-05T02:15:47.578Z,100.00
2022-08-05T02:22:58.419Z,100.00
2022-08-05T02:25:33.114Z,100.00
2022-08-05T02:28:02.513Z,100.00
2022-08-05T02:30:51.769Z,100.00
2022-08-05T02:33:24.664Z,100.00
2022-08-05T02:36:06.439Z,100.00
2022-08-05T02:38:37.450Z,100.00
2022-08-05T02:46:08.685Z,100.00
2022-08-05T02:48:45.173Z,100.00
2022-08-05T02:51:16.991Z,100.00
2022-08-05T02:53:45.966Z,100.00
2022-08-05T02:56:16.001Z,100.00
2022-08-05T02:58:51.418Z,100.00
2022-08-05T03:01:25.133Z,100.00
2022-08-05T03:08:59.253Z,100.00
2022-08-05T03:11:55.599Z,100.00
2022-08-05T03:14:15.736Z,100.00
2022-08-05T03:16:43.193Z,100.00
2022-08-05T03:19:16.995Z,100.00
2022-08-05T03:21:49.396Z,100.00
2022-08-05T03:24:29.255Z,100.00
2022-08-05T03:32:08.917Z,100.00
2022-08-05T03:34:36.976Z,100.00
2022-08-05T03:37:05.700Z,100.00
2022-08-05T03:39:38.164Z,100.00
2022-08-05T03:42:20.749Z,100.00
2022-08-05T03:44:48.268Z,100.00
2022-08-05T03:47:16.475Z,100.00
2022-08-05T03:55:00.424Z,100.00
2022-08-05T03:57:42.357Z,100.00
2022-08-05T04:00:15.495Z,100.00
2022-08-05T04:02:51.983Z,100.00
2022-08-05T04:05:33.659Z,100.00
2022-08-05T04:08:03.539Z,100.00
2022-08-05T04:14:39.627Z,100.00
2022-08-05T04:17:09.307Z,100.00
2022-08-05T04:19:42.917Z,100.00
2022-08-05T04:22:12.936Z,100.00
2022-08-05T04:24:52.910Z,100.00
2022-08-05T04:27:33.282Z,100.00
2022-08-05T04:30:10.282Z,100.00
2022-08-05T04:38:02.933Z,100.00
2022-08-05T04:40:29.666Z,100.00
2022-08-05T04:42:57.156Z,100.00
2022-08-05T04:45:48.310Z,100.00
2022-08-05T04:48:18.631Z,100.00
2022-08-05T04:51:01.844Z,100.00
2022-08-05T04:56:34.897Z,100.00
2022-08-05T04:59:22.177Z,100.00
2022-08-05T05:02:34.979Z,100.00
2022-08-05T05:04:43.906Z,100.00
2022-08-05T05:07:11.866Z,100.00
2022-08-05T05:09:43.556Z,100.00
2022-08-05T05:18:01.065Z,100.00
2022-08-05T05:20:29.019Z,100.00
2022-08-05T05:22:56.668Z,100.00
2022-08-05T05:25:33.028Z,100.00
2022-08-05T05:28:08.466Z,100.00
2022-08-05T05:30:36.832Z,100.00
2022-08-05T05:33:16.134Z,100.00
2022-08-05T05:40:51.443Z,100.00
2022-08-05T05:43:27.712Z,100.00
2022-08-05T05:46:12.233Z,100.00
2022-08-05T05:48:44.407Z,100.00
2022-08-05T05:51:15.610Z,100.00
2022-08-05T05:53:54.010Z,100.00
2022-08-05T05:56:32.289Z,100.00
2022-08-05T06:04:02.006Z,100.00
2022-08-05T06:06:33.174Z,100.00
2022-08-05T06:09:03.884Z,100.00
2022-08-05T06:11:31.850Z,100.00
2022-08-05T06:14:00.375Z,100.00
2022-08-05T06:16:36.687Z,100.00
2022-08-05T06:19:07.562Z,100.00
2022-08-05T06:26:40.090Z,100.00
2022-08-05T06:29:42.948Z,100.00
2022-08-05T06:32:25.412Z,100.00
2022-08-05T06:34:56.242Z,100.00
2022-08-05T06:37:55.818Z,100.00
2022-08-05T06:40:14.093Z,100.00
2022-08-05T06:46:04.066Z,100.00
2022-08-05T06:48:52.647Z,100.00
2022-08-05T06:51:29.955Z,100.00
2022-08-05T06:53:58.753Z,100.00
2022-08-05T06:56:27.141Z,100.00
2022-08-05T06:58:54.979Z,100.00
2022-08-05T07:01:23.608Z,100.00
2022-08-05T07:08:59.051Z,100.00
2022-08-05T07:11:28.246Z,99.15
2022-08-05T07:14:20.298Z,100.00
2022-08-05T07:17:59.468Z,100.00
2022-08-05T07:20:31.744Z,96.30
2022-08-05T07:22:35.527Z,94.18
2022-08-05T07:30:24.543Z,92.66
2022-08-05T07:32:55.727Z,96.14
2022-08-05T07:36:03.791Z,94.38
2022-08-05T07:38:31.977Z,93.68
2022-08-05T07:41:04.526Z,89.37
2022-08-05T07:43:47.558Z,89.70
2022-08-05T07:51:36.901Z,80.50
2022-08-05T07:54:09.536Z,79.66
2022-08-05T07:57:00.542Z,79.76
2022-08-05T07:59:39.076Z,77.27
2022-08-05T08:02:10.625Z,79.04
2022-08-05T08:04:45.013Z,80.68
2022-08-05T08:09:54.841Z,79.39
2022-08-05T08:12:35.057Z,78.10
2022-08-05T08:15:15.658Z,76.86
2022-08-05T08:17:49.654Z,72.61
2022-08-05T08:20:43.394Z,77.01
2022-08-05T08:23:11.665Z,73.85
2022-08-05T08:25:59.795Z,78.83
2022-08-05T08:33:37.776Z,77.67
2022-08-05T08:36:37.411Z,77.21
2022-08-05T08:38:55.462Z,72.01
2022-08-05T08:41:26.370Z,73.85
2022-08-05T08:45:24.310Z,69.50
2022-08-05T08:47:03.544Z,69.06
2022-08-05T08:54:53.794Z,74.20
2022-08-05T08:57:22.653Z,65.00
2022-08-05T08:59:50.613Z,68.13
2022-08-05T09:02:20.834Z,66.78
2022-08-05T09:05:16.371Z,64.68
2022-08-05T09:07:40.083Z,63.45
2022-08-05T09:15:45.345Z,60.35
2022-08-05T09:18:13.454Z,62.32
2022-08-05T09:20:43.818Z,65.57
2022-08-05T09:23:19.518Z,63.24
2022-08-05T09:26:01.308Z,58.57
2022-08-05T09:28:34.521Z,68.09
2022-08-05T09:31:18.246Z,57.70
2022-08-05T09:38:29.421Z,59.23
2022-08-05T09:41:04.037Z,59.17
2022-08-05T09:43:40.588Z,56.18
2022-08-05T09:46:27.744Z,54.98
2022-08-05T09:49:08.416Z,57.84
2022-08-05T09:51:44.777Z,56.85
2022-08-05T09:54:31.318Z,51.54
2022-08-05T10:01:15.015Z,50.88
2022-08-05T10:03:59.055Z,53.53
2022-08-05T10:06:27.687Z,50.41
2022-08-05T10:08:56.062Z,50.43
2022-08-05T10:11:31.017Z,55.11
2022-08-05T10:14:21.142Z,51.28
2022-08-05T10:16:53.489Z,54.59
2022-08-05T10:23:59.512Z,50.39
2022-08-05T10:26:32.286Z,48.78
2022-08-05T10:29:02.013Z,47.18
2022-08-05T10:32:53.684Z,47.19
2022-08-05T10:34:17.423Z,54.24
2022-08-05T10:36:45.467Z,46.59
2022-08-05T10:39:24.641Z,47.34
2022-08-05T10:44:54.421Z,48.77
2022-08-05T10:47:32.562Z,49.53
2022-08-05T10:50:36.261Z,48.17
2022-08-05T10:52:58.650Z,51.98
2022-08-05T10:55:27.609Z,49.97
2022-08-05T10:58:15.693Z,48.36
2022-08-05T11:00:55.374Z,53.06
2022-08-05T11:06:15.673Z,54.17
2022-08-05T11:09:32.090Z,52.92
2022-08-05T11:12:41.889Z,55.50
2022-08-05T11:15:20.263Z,57.46
2022-08-05T11:17:59.014Z,57.33
2022-08-05T11:20:43.992Z,58.76
2022-08-05T11:28:44.849Z,57.62
2022-08-05T11:31:57.342Z,57.09
2022-08-05T11:34:08.298Z,59.36
2022-08-05T11:36:47.128Z,54.11
2022-08-05T11:39:50.169Z,56.92
2022-08-05T11:42:28.365Z,56.57
2022-08-05T11:50:00.405Z,56.53
2022-08-05T11:52:31.377Z,60.84
2022-08-05T11:54:59.341Z,56.07
2022-08-05T11:58:08.557Z,52.47
2022-08-05T12:00:28.692Z,50.46
2022-08-05T12:02:56.687Z,48.14
2022-08-05T12:05:29.051Z,47.81
2022-08-05T12:10:49.634Z,49.80
2022-08-05T12:13:49.056Z,47.69
2022-08-05T12:16:15.421Z,44.18
2022-08-05T12:18:52.338Z,42.14
2022-08-05T12:21:24.118Z,42.30
2022-08-05T12:24:00.115Z,41.58
2022-08-05T12:34:20.547Z,36.80
2022-08-05T12:36:51.441Z,35.38
2022-08-05T12:39:19.637Z,38.53
2022-08-05T12:41:47.549Z,40.51
2022-08-05T12:44:28.512Z,39.90
2022-08-05T12:47:01.768Z,42.11
2022-08-05T12:50:03.897Z,40.91
2022-08-05T12:57:24.959Z,43.70
2022-08-05T13:02:01.239Z,38.37
2022-08-05T13:02:42.239Z,36.74
2022-08-05T13:05:15.054Z,36.18
2022-08-05T13:07:59.498Z,34.26
2022-08-05T13:10:32.593Z,34.93
2022-08-05T13:15:57.023Z,32.03
2022-08-05T13:18:24.884Z,31.84
2022-08-05T13:20:52.539Z,32.58
2022-08-05T13:23:22.636Z,33.18
2022-08-05T13:25:58.899Z,35.40
2022-08-05T13:28:27.667Z,35.14
2022-08-05T13:30:55.287Z,31.99
2022-08-05T13:38:34.235Z,40.03
2022-08-05T13:41:06.095Z,40.49
2022-08-05T13:43:44.188Z,42.63
2022-08-05T13:46:35.739Z,45.15
2022-08-05T13:49:10.272Z,46.82
2022-08-05T13:51:40.921Z,45.63
2022-08-05T13:57:00.738Z,47.33
2022-08-05T13:59:30.738Z,51.46
2022-08-05T14:02:00.349Z,51.45
2022-08-05T14:04:50.429Z,52.42
2022-08-05T14:07:26.041Z,48.01
2022-08-05T14:10:09.779Z,44.01
2022-08-05T14:12:39.198Z,43.47
2022-08-05T14:20:11.894Z,44.60
2022-08-05T14:22:49.983Z,44.14
2022-08-05T14:25:22.219Z,46.02
2022-08-05T14:27:50.417Z,41.66
2022-08-05T14:30:20.500Z,44.22
2022-08-05T14:32:49.258Z,39.41
2022-08-05T14:35:20.711Z,39.44
2022-08-05T14:42:42.669Z,38.13
2022-08-05T14:45:11.135Z,36.03
2022-08-05T14:48:03.858Z,32.21
2022-08-05T14:50:26.301Z,35.03
2022-08-05T14:52:58.501Z,34.81
2022-08-05T14:55:28.606Z,36.98
2022-08-05T14:58:11.372Z,39.38
2022-08-05T15:03:25.128Z,42.00
2022-08-05T15:06:13.502Z,43.78
2022-08-05T15:08:58.720Z,45.78
2022-08-05T15:11:53.200Z,47.79
2022-08-05T15:14:20.297Z,47.56
2022-08-05T15:17:04.058Z,47.59
2022-08-05T15:24:36.412Z,48.64
2022-08-05T15:27:08.961Z,51.00
2022-08-05T15:29:42.155Z,49.20
2022-08-05T15:32:09.843Z,51.16
2022-08-05T15:34:37.463Z,49.35
2022-08-05T15:37:06.939Z,51.77
2022-08-05T15:41:03.538Z,51.77
2022-08-05T15:47:17.115Z,51.68
2022-08-05T15:49:56.696Z,52.92
2022-08-05T15:52:51.549Z,52.02
2022-08-05T15:55:16.191Z,54.57
2022-08-05T15:57:44.996Z,54.56
2022-08-05T16:00:16.845Z,52.68
2022-08-05T16:06:22.805Z,52.66
2022-08-05T16:08:53.797Z,49.81
2022-08-05T16:11:42.851Z,51.61
2022-08-05T16:14:17.449Z,49.64
2022-08-05T16:16:46.148Z,50.39
2022-08-05T16:19:19.237Z,50.28
2022-08-05T16:24:51.684Z,49.12
2022-08-05T16:27:47.117Z,51.51
2022-08-05T16:30:25.652Z,50.27
2022-08-05T16:32:55.113Z,49.89
2022-08-05T16:35:27.772Z,50.51
2022-08-05T16:38:16.013Z,51.80
2022-08-05T16:46:07.314Z,52.42
2022-08-05T16:48:38.794Z,53.55
2022-08-05T16:51:10.125Z,53.51
2022-08-05T16:54:02.502Z,52.85
2022-08-05T16:56:29.040Z,54.40
2022-08-05T16:58:57.413Z,53.05
2022-08-05T17:01:27.069Z,53.23
2022-08-05T17:06:53.511Z,53.26
2022-08-05T17:09:21.563Z,53.44
2022-08-05T17:11:56.088Z,55.00
2022-08-05T17:14:36.955Z,56.13
2022-08-05T17:17:14.560Z,55.98
2022-08-05T17:19:45.838Z,56.66
2022-08-05T17:25:48.598Z,58.03
2022-08-05T17:28:16.603Z,57.95
2022-08-05T17:30:52.122Z,56.88
2022-08-05T17:33:20.413Z,58.34
2022-08-05T17:36:07.998Z,58.16
2022-08-05T17:38:35.558Z,59.10
2022-08-05T17:41:04.075Z,61.44
2022-08-05T17:48:00.857Z,60.81
2022-08-05T17:50:30.700Z,61.05
2022-08-05T17:53:00.756Z,62.67
2022-08-05T17:55:34.278Z,62.87
2022-08-05T17:58:05.031Z,63.33
2022-08-05T18:00:34.669Z,62.21
2022-08-05T18:03:04.095Z,61.24
2022-08-05T18:10:39.453Z,62.94
2022-08-05T18:13:07.692Z,63.76
2022-08-05T18:15:39.825Z,64.10
2022-08-05T18:18:11.418Z,66.72
2022-08-05T18:20:39.218Z,66.08
2022-08-05T18:23:09.416Z,67.73
2022-08-05T18:25:45.269Z,69.66
2022-08-05T18:30:51.989Z,72.98
2022-08-05T18:33:23.065Z,76.13
2022-08-05T18:36:04.314Z,76.46
2022-08-05T18:38:35.092Z,79.48
2022-08-05T18:41:57.002Z,80.89
2022-08-05T18:43:51.823Z,82.92
2022-08-05T18:46:21.147Z,85.79
2022-08-05T18:52:06.555Z,88.21
2022-08-05T18:54:41.374Z,89.77
2022-08-05T18:57:15.205Z,92.64
2022-08-05T19:00:01.777Z,93.03
2022-08-05T19:02:33.028Z,93.21
2022-08-05T19:06:06.252Z,93.24
2022-08-05T19:12:49.187Z,94.94
2022-08-05T19:15:56.824Z,93.83
2022-08-05T19:18:09.268Z,97.16
2022-08-05T19:20:41.306Z,94.92
2022-08-05T19:24:03.774Z,96.62
2022-08-05T19:26:01.063Z,97.20
2022-08-05T19:33:36.878Z,100.00
2022-08-05T19:36:06.224Z,100.00
2022-08-05T19:38:35.761Z,100.00
2022-08-05T19:41:07.003Z,100.00
2022-08-05T19:44:06.886Z,100.00
2022-08-05T19:46:29.713Z,100.00
2022-08-05T19:54:31.004Z,100.00
2022-08-05T19:56:59.687Z,100.00
2022-08-05T19:59:54.966Z,100.00
2022-08-05T20:02:18.142Z,100.00
2022-08-05T20:04:48.421Z,100.00
2022-08-05T20:07:16.139Z,100.00
2022-08-05T20:12:47.510Z,100.00
2022-08-05T20:15:48.452Z,100.00
2022-08-05T20:18:05.784Z,100.00
2022-08-05T20:20:42.848Z,100.00
2022-08-05T20:23:10.397Z,100.00
2022-08-05T20:25:40.454Z,100.00
2022-08-05T20:30:48.024Z,100.00
2022-08-05T20:33:17.081Z,100.00
2022-08-05T20:35:49.105Z,100.00
2022-08-05T20:38:22.734Z,100.00
2022-08-05T20:40:55.515Z,100.00
2022-08-05T20:43:57.507Z,100.00
2022-08-05T20:46:18.517Z,100.00
2022-08-05T20:53:16.180Z,100.00
2022-08-05T20:56:08.489Z,100.00
2022-08-05T20:58:37.125Z,100.00
2022-08-05T21:01:04.732Z,100.00
2022-08-05T21:03:34.223Z,100.00
2022-08-05T21:06:02.347Z,100.00
2022-08-05T21:08:35.995Z,100.00
2022-08-05T21:15:25.883Z,100.00
2022-08-05T21:18:01.465Z,100.00
2022-08-05T21:20:32.680Z,100.00
2022-08-05T21:23:01.270Z,100.00
2022-08-05T21:25:33.998Z,100.00
2022-08-05T21:28:02.989Z,100.00
2022-08-05T21:30:31.451Z,100.00
2022-08-05T21:38:03.289Z,100.00
2022-08-05T21:40:31.103Z,100.00
2022-08-05T21:43:01.705Z,100.00
2022-08-05T21:45:51.506Z,100.00
2022-08-05T21:48:20.914Z,100.00
2022-08-05T21:50:53.064Z,100.00
2022-08-05T21:53:27.251Z,100.00
2022-08-05T22:01:00.004Z,100.00
2022-08-05T22:03:48.545Z,100.00
2022-08-05T22:06:16.511Z,100.00
2022-08-05T22:08:52.114Z,100.00
2022-08-05T22:11:34.491Z,100.00
2022-08-05T22:14:05.595Z,100.00
2022-08-05T22:20:16.717Z,100.00
2022-08-05T22:23:03.801Z,100.00
2022-08-05T22:26:09.905Z,100.00
2022-08-05T22:28:38.986Z,100.00
2022-08-05T22:31:06.516Z,100.00
2022-08-05T22:33:57.455Z,100.00
2022-08-05T22:41:26.235Z,100.00
2022-08-05T22:44:12.814Z,100.00
2022-08-05T22:46:41.055Z,100.00
2022-08-05T22:49:23.192Z,100.00
2022-08-05T22:52:05.659Z,100.00
2022-08-05T22:54:35.708Z,100.00
2022-08-05T22:59:43.582Z,100.00
2022-08-05T23:02:17.909Z,100.00
2022-08-05T23:04:51.904Z,100.00
2022-08-05T23:07:21.958Z,100.00
2022-08-05T23:09:57.374Z,100.00
2022-08-05T23:12:32.366Z,100.00
2022-08-05T23:18:01.176Z,100.00
2022-08-05T23:20:31.537Z,100.00
2022-08-05T23:23:00.390Z,100.00
2022-08-05T23:25:52.254Z,100.00
2022-08-05T23:28:18.953Z,100.00
2022-08-05T23:30:53.487Z,100.00
2022-08-05T23:34:03.252Z,100.00
2022-08-05T23:41:15.472Z,100.00
2022-08-05T23:44:05.581Z,100.00
2022-08-05T23:46:31.664Z,100.00
2022-08-05T23:49:01.930Z,100.00
2022-08-05T23:52:01.343Z,100.00
2022-08-05T23:54:34.167Z,100.00
